Tiempo atmosférico en la estación meteorológica de Tenerife Sur Aeropuerto, Santa Cruz de Tenerife (64 m.)



Fecha
DESCASC
Temp. máxima en grados centígrados (hora)
DESCASC
Temp. mínima en grados centígrados (hora)
DESCASC
Temp. media en grados centígrados
DESCASC
Racha de viento máxima en m/sg (hora)
DESCASC
Velocidad máxima media en intervalos de 10 minutos(hora)
DESCASC
Precipitaciones diarias en mm
DESCASC
Precipitaciones de 00:00 a 06:00 en mm
DESCASC
Precipitaciones de 06:00 a 12:00 en mm
DESCASC
Precipitaciones de 12:00 a 18:00 en mm
DESCASC
Precipitaciones de 18:00 a 24:00 en mm
DESCASC
18-08-2019 36.2 (15:30) 23.8 (23:59) 30 21.11 (04:10) 15 (12:10) 0 0 0 0 0
17-08-2019 36.4 (15:40) 24.5 (07:30) 30.5 -- (--) -- (--) -- 0 0 -- 0
16-08-2019 36 (15:20) 20.6 (07:40) 28.3 18.89 (12:30) 13.89 (12:50) 0 0 0 0 0
15-08-2019 29.6 (12:40) 18.5 (00:00) 24.1 13.89 (14:00) 10.28 (17:20) 0 0 0 0 0
14-08-2019 29.9 (17:10) 18.7 (00:00) 24.3 14.44 (16:50) 10.83 (17:30) 0 0 0 0 0
13-08-2019 28.1 (13:40) 20.4 (00:00) 24.3 18.61 (14:50) 13.06 (14:50) 0 0 0 0 0
12-08-2019 29.2 (16:40) 22.6 (00:00) 25.9 18.06 (10:50) 13.61 (10:40) 0 0 0 0 0
11-08-2019 29.3 (14:20) 23.2 (00:00) 26.3 18.61 (16:10) 13.33 (15:40) 0 0 0 0 0
10-08-2019 30 (13:40) 21.8 (00:00) 25.9 14.44 (14:40) 11.39 (14:20) 0 0 0 0 0
09-08-2019 27.7 (16:30) 21.2 (00:00) 24.5 12.78 (12:10) 10 (13:10) 0 0 0 0 0
08-08-2019 27.8 (13:40) 20.4 (00:00) 24.1 10.83 (11:50) 8.33 (11:40) 0 0 0 0 0
07-08-2019 28 (14:50) 19.3 (00:00) 23.6 13.89 (12:50) 10.56 (17:00) 0 0 0 0 0
06-08-2019 28.6 (15:30) 21.2 (00:00) 24.9 14.44 (18:20) 10.83 (18:30) 0 0 0 0 0
05-08-2019 28.7 (16:10) 20 (00:00) 24.4 16.11 (14:50) 11.94 (15:00) 0 0 0 0 0
04-08-2019 28.9 (15:50) 19.8 (00:00) 24.3 15.28 (13:50) 11.39 (14:00) 0 0 0 0 0
03-08-2019 27.3 (16:10) 20 (00:00) 23.6 13.89 (15:10) 10.83 (14:10) 0 0 0 0 0
02-08-2019 27.4 (14:10) 19.5 (00:00) 23.4 15 (13:40) 11.11 (13:40) 0 0 0 0 0
01-08-2019 27.4 (13:50) 18.6 (00:00) 23 14.44 (12:30) 11.39 (14:00) 0 0 0 0 0
31-07-2019 26.5 (11:50) 20.8 (00:00) 23.6 14.44 (14:30) 11.11 (13:50) 0 0 0 0 0
30-07-2019 28.6 (15:00) 20.4 (00:00) 24.5 16.39 (15:00) 11.94 (16:00) 0 0 0 0 0
29-07-2019 28.6 (14:50) 22.3 (00:00) 25.4 16.11 (22:00) 11.11 (14:10) 0 0 0 0 0
28-07-2019 28.5 (14:00) 21.5 (00:00) 25 13.89 (14:30) 10.83 (14:40) 0 0 0 0 0
27-07-2019 27.6 (13:40) 21.4 (00:00) 24.5 18.06 (11:50) 12.78 (15:00) 0 0 0 0 0
26-07-2019 29.2 (15:10) 21.7 (00:00) 25.5 19.72 (17:30) 14.17 (17:10) 0 0 0 0 0
25-07-2019 32.2 (13:50) 17.8 (00:00) 25 20 (14:20) 12.22 (12:50) 0 0 0 0 0
24-07-2019 28.9 (14:50) 18.3 (00:00) 23.6 12.5 (12:40) 9.17 (12:50) 0 0 0 0 0
23-07-2019 27.3 (15:20) 18.9 (00:00) 23.1 16.11 (13:10) 12.22 (13:00) 0 0 0 0 0
22-07-2019 27.6 (15:10) 19.9 (00:00) 23.8 15 (12:10) 11.67 (15:00) 0 0 0 0 0
21-07-2019 27.6 (14:50) 21.2 (00:00) 24.4 16.11 (15:50) 11.67 (16:10) 0 0 0 0 0

Gráficas

Temp. máximas Temp. mínimas Temp. medias Precipitaciones Rachas de viento máximas Velocidades máximas media en intervalos de 10 minutos

Datos horarios

Fecha y hora oficial Temperatura (ºC) Velocidad del viento (km/h) Dirección del viento Racha (km/h) Dirección de racha Precipitación (mm) Presión (hPa) Tendencia (hPa) Humedad (%)
2019-08-19 23:00:00 23.1 23 Nordeste 37 Nordeste 0 1008.6 1.9 80
2019-08-19 22:00:00 23.6 21 Nordeste 33 Nordeste 0 1008 1.5 77
2019-08-19 21:00:00 24.1 20 Nordeste 39 Este 0 1007.3 0.8 76
2019-08-19 20:00:00 25.4 30 Este 39 Nordeste 0 1006.7 0.3 70
2019-08-19 19:00:00 26.6 28 Este 41 Este 0 1006.5 0.1 66
2019-08-19 18:00:00 29 27 Este 35 Este 0 1006.5 -0.1 56
2019-08-19 17:00:00 29.6 27 Este 35 Este 0 1006.4 -0.7 54
2019-08-19 16:00:00 32 17 Este 33 Este 0 1006.4 -0.4 42
2019-08-19 15:00:00 32.1 21 Este 33 Este 0 1006.6 -0.4 44
2019-08-19 14:00:00 32.1 15 Sudeste 35 Este 0 1007.1 0.4 45
2019-08-19 13:00:00 30.8 21 Este 39 Este 0 1006.8 0.4 47
2019-08-19 12:00:00 29.1 28 Este 45 Este 0 1007 1.1 53
2019-08-19 11:00:00 26.8 27 Este 37 Este 0 1006.7 1.6 64
2019-08-19 10:00:00 25.4 22 Nordeste 55 Nordeste 0 1006.4 1.5 68
2019-08-19 09:00:00 23.2 42 Nordeste 59 Nordeste 0 1005.9 2 78
2019-08-19 08:00:00 21.9 34 Nordeste 46 Este 0 1005.1 0.4 85
2019-08-19 07:00:00 22.2 31 Nordeste 61 Nordeste 0 1004.9 0.6 81
2019-08-19 06:00:00 22.5 39 Nordeste 54 Nordeste 0 1003.9 -0.7 77
2019-08-19 05:00:00 22.3 13 Nordeste 42 Nordeste 0 1004.7 -0.7 83
2019-08-19 04:00:00 22.4 35 Nordeste 63 Nordeste 0 1004.3 -1.5 83
2019-08-19 03:00:00 22.5 50 Nordeste 63 Nordeste 0 1004.6 -0.9 83
2019-08-19 02:00:00 22.8 41 Nordeste 55 Nordeste 0 1005.4 -0.2 81
2019-08-19 01:00:00 23.2 31 Nordeste 58 Nordeste 0 1005.8 1.2 80
2019-08-19 00:00:00 23.9 46 Nordeste 58 Nordeste 0 1005.5 1.4 73
2019-08-18 23:00:00 25.2 29 Nordeste 45 Nordeste 0 1005.6 1.5 62
2019-08-18 22:00:00 27.7 37 Nordeste 58 Nordeste 0 1004.6 0.8 29
2019-08-18 21:00:00 28.4 47 Nordeste 61 Nordeste 0 1004.1 0.4 29
2019-08-18 20:00:00 29.9 35 Nordeste 50 Nordeste 0 1004.1 0 34
2019-08-18 19:00:00 31.5 33 Nordeste 58 Nordeste 0 1003.8 0.1 32
2019-08-18 18:00:00 30.7 48 Nordeste 67 Nordeste 0 1003.7 -0.4 45
2019-08-18 17:00:00 32.9 36 Este 65 Nordeste 0 1004.1 -0.1 40
2019-08-18 16:00:00 35.6 51 Nordeste 63 Este 0 1003.7 -0.8 25
2019-08-18 15:00:00 34.8 47 Nordeste 67 Este 0 1004.1 -0.4 30
2019-08-18 14:00:00 35 54 Nordeste 68 Nordeste 0 1004.2 -0.7 25
2019-08-18 13:00:00 34.6 51 Nordeste 71 Nordeste 0 1004.5 0.3 28
2019-08-18 12:00:00 33.3 51 Nordeste 67 Nordeste 0 1004.5 0.7 32
2019-08-18 11:00:00 30.9 46 Nordeste 63 Nordeste 0 1004.9 2.1 37
2019-08-18 10:00:00 28.8 44 Nordeste 61 Este 0 1004.2 2.1 46
2019-08-18 09:00:00 29 46 Nordeste 61 Nordeste 0 1003.8 1.5 32
2019-08-18 08:00:00 27.7 45 Nordeste 67 Nordeste 0 1002.8 0.4 34
2019-08-18 07:00:00 28.2 48 Nordeste 65 Nordeste 0 1002.1 -0.7 35
2019-08-18 06:00:00 27.4 43 Nordeste 63 Nordeste 0 1002.3 -0.3 41
2019-08-18 05:00:00 28 46 Nordeste 76 Nordeste 0 1002.4 -0.7 37
2019-08-18 04:00:00 27.5 51 Nordeste 68 Nordeste 0 1002.8 -0.8 40
2019-08-18 03:00:00 26.3 50 Nordeste 63 Nordeste 0 1002.6 -1 51
2019-08-18 02:00:00 27.3 53 Nordeste 68 Nordeste 0 1003.1 -0.3 41
2019-08-18 01:00:00 27.3 46 Nordeste 67 Nordeste 0 1003.6 0.6 42
2019-08-18 00:00:00 28 45 Nordeste 65 Nordeste 0 1003.6 0.6 42
2019-08-17 23:00:00 29.1 49 Nordeste 72 Nordeste 0 1003.4 0.5 33
2019-08-17 22:00:00 29.7 49 Nordeste 72 Nordeste 0 1003 0.2 31
2019-08-17 21:00:00 30.4 45 Nordeste 65 Nordeste 0 1003 -- 27
2019-08-17 20:00:00 31.2 37 Nordeste 65 Nordeste 0 1002.9 0.1 28
2019-08-17 19:00:00 31.8 42 Nordeste -- -- -- 1002.8 -0.2 28
2019-08-17 18:00:00 -- -- -- -- -- -- -- -- --
2019-08-17 17:00:00 35.4 49 Nordeste 63 Nordeste 0 1002.8 -1.1 24
2019-08-17 16:00:00 35.2 42 Nordeste 68 Nordeste 0 1003 -0.9 27
2019-08-17 15:00:00 35.8 53 Nordeste 71 Nordeste 0 1002.9 -1.1 24
2019-08-17 14:00:00 33 19 Sudoeste 46 Nordeste 0 1003.9 0.2 43
2019-08-17 13:00:00 34.8 31 Nordeste 50 Nordeste 0 1003.9 0.3 31
2019-08-17 12:00:00 33.1 32 Nordeste 63 Nordeste 0 1004 0.7 36
2019-08-17 11:00:00 31.7 40 Nordeste 55 Nordeste 0 1003.7 0.5 37
2019-08-17 10:00:00 30.2 25 Nordeste 45 Nordeste 0 1003.6 0.9 42
2019-08-17 09:00:00 28.5 14 Nordeste 41 Nordeste 0 1003.3 1.2 46
2019-08-17 08:00:00 26.2 16 Norte 37 Este 0 1003.2 1.7 56
2019-08-17 07:00:00 26.6 9 Oeste 54 Nordeste 0 1002.7 0.7 59
2019-08-17 06:00:00 29.7 43 Nordeste 67 Nordeste 0 1002.1 -0.3 34
2019-08-17 05:00:00 30.8 53 Nordeste 76 Este 0 1001.5 -1.5 32
2019-08-17 04:00:00 29.6 50 Nordeste 67 Nordeste 0 1002 -1.4 35
2019-08-17 03:00:00 28.6 44 Nordeste 63 Nordeste 0 1002.4 -1.7 40
2019-08-17 02:00:00 28.2 35 Nordeste 55 Nordeste 0 1003 -1.2 42
2019-08-17 01:00:00 28.5 44 Nordeste 61 Nordeste 0 1003.4 -1 43
2019-08-17 00:00:00 27.5 41 Nordeste 58 Nordeste 0 1004.1 0.2 50
2019-08-16 23:00:00 27.6 44 Nordeste 61 Nordeste 0 1004.2 0.7 51
2019-08-16 22:00:00 27.2 29 Nordeste 46 Nordeste 0 1004.4 0.7 55
2019-08-16 21:00:00 28.6 25 Nordeste 42 Nordeste 0 1003.9 -0.2 47
2019-08-16 20:00:00 29.6 27 Nordeste 37 Este 0 1003.5 -0.5 45
2019-08-16 19:00:00 31 20 Este 32 Nordeste 0 1003.7 -0.8 41
2019-08-16 18:00:00 32.4 26 Este 50 Nordeste 0 1004.1 0.1 35
2019-08-16 17:00:00 31.8 34 Este 48 Este 0 1004 -0.7 37
2019-08-16 16:00:00 33.8 22 Este 58 Nordeste 0 1004.5 0.1 34
2019-08-16 15:00:00 35.4 33 Este 52 Este 0 1004 -1 26
2019-08-16 14:00:00 33.6 22 Sur 65 Nordeste 0 1004.7 -0.9 35
2019-08-16 13:00:00 32.6 47 Nordeste 68 Este 0 1004.4 -0.7 31
2019-08-16 12:00:00 30.5 24 Este 41 Este 0 1005 -0.2 45
2019-08-16 11:00:00 27.3 15 Sudoeste 26 Sudoeste 0 1005.6 0.2 59
2019-08-16 10:00:00 25.9 6 Sudoeste 17 Sudoeste 0 1005.1 -0.1 64
2019-08-16 09:00:00 23.2 10 Sudoeste 18 Noroeste 0 1005.2 0.4 76
2019-08-16 08:00:00 21.2 13 Noroeste 24 Norte 0 1005.4 0.5 84
2019-08-16 07:00:00 20.9 11 Noroeste 28 Noroeste 0 1005.2 0.1 86
2019-08-16 06:00:00 21.3 5 Noroeste 18 Noroeste 0 1004.8 -1.2 86
2019-08-16 05:00:00 21.1 6 Noroeste 13 Norte 0 1004.9 -1.4 85
2019-08-16 04:00:00 21.1 7 Norte 13 Norte 0 1005.1 -1.4 80
2019-08-16 03:00:00 21.4 4 Norte 9 Noroeste 0 1006 -0.6 82
2019-08-16 02:00:00 21.8 8 Sudoeste 11 Sudoeste 0 1006.3 -0.3 81
2019-08-16 01:00:00 22.6 7 Noroeste 11 Oeste 0 1006.5 -0.2 80
2019-08-16 00:00:00 23.3 10 Oeste 15 Oeste 0 1006.6 0.4 78
2019-08-15 23:00:00 23.6 8 Noroeste 24 Norte 0 1006.6 0.7 77
2019-08-15 22:00:00 23.9 10 Este 33 Nordeste 0 1006.7 0.7 72
2019-08-15 21:00:00 24.1 20 Este 45 Nordeste 0 1006.2 -0.1 74
2019-08-15 20:00:00 25.2 30 Este 45 Este 0 1005.9 -0.4 70
2019-08-15 19:00:00 26.4 32 Este 46 Nordeste 0 1006 -0.6 66
2019-08-15 18:00:00 26.9 37 Este 48 Este 0 1006.3 -0.8 64
2019-08-15 17:00:00 27.6 33 Este 46 Este 0 1006.3 -1.3 63
2019-08-15 16:00:00 28.1 32 Este 45 Este 0 1006.6 -1.2 59
2019-08-15 15:00:00 28.3 33 Este 50 Este 0 1007.1 -1 58
2019-08-15 14:00:00 28.4 35 Este 50 Este 0 1007.6 -0.6 57
2019-08-15 13:00:00 28.7 31 Este 41 Este 0 1007.8 0 52
2019-08-15 12:00:00 28 25 Este 33 Este 0 1008.1 0.5 56
2019-08-15 11:00:00 27.4 17 Este 28 Este 0 1008.2 0.7 52
2019-08-15 10:00:00 26 3 Sudeste 9 Sur 0 1007.8 0.5 47
2019-08-15 09:00:00 22.9 4 Oeste 21 Norte 0 1007.6 0.1 47
2019-08-15 08:00:00 18.5 10 Noroeste 26 Norte 0 1007.5 0 62
2019-08-15 07:00:00 18.6 12 Norte 21 Norte 0 1007.3 -0.5 68
2019-08-15 06:00:00 19.2 8 Noroeste 11 Noroeste 0 1007.5 -0.7 72
2019-08-15 05:00:00 20.7 7 Norte 13 Norte 0 1007.5 -1.3 67
2019-08-15 04:00:00 20.4 10 Norte 17 Norte 0 1007.8 -1.2 63
2019-08-15 03:00:00 20.7 9 Nordeste 24 Norte 0 1008.2 -1 67
2019-08-15 02:00:00 21.1 7 Norte 17 Nordeste 0 1008.8 -0.3 68
2019-08-15 01:00:00 21.4 9 Nordeste 13 Nordeste 0 1009 0.1 69
2019-08-15 00:00:00 21.6 6 Norte 18 Norte 0 1009.2 1.1 71
2019-08-14 23:00:00 22.5 9 Nordeste 26 Nordeste 0 1009.1 1.3 67
2019-08-14 22:00:00 23.4 8 Este 28 Norte 0 1008.9 1.1 66
2019-08-14 21:00:00 24.6 16 Nordeste 32 Nordeste 0 1008.1 -0.2 57
2019-08-14 20:00:00 27.3 22 Este 42 Este 0 1007.8 -0.2 37
2019-08-14 19:00:00 28.7 25 Este 45 Este 0 1007.8 -0.2 29
2019-08-14 18:00:00 29.1 31 Este 52 Nordeste 0 1008.3 -0.1 31
2019-08-14 17:00:00 29.4 38 Este 52 Este 0 1008 -0.9 33
2019-08-14 16:00:00 28.6 33 Este 48 Este 0 1008 -1.7 49
2019-08-14 15:00:00 28.2 32 Este 46 Este 0 1008.4 -1.3 54
2019-08-14 14:00:00 27.8 33 Este 46 Este 0 1008.9 -0.6 55
2019-08-14 13:00:00 27.1 32 Este 50 Este 0 1009.7 0.4 57
2019-08-14 12:00:00 26.8 33 Este 45 Nordeste 0 1009.7 0.6 57
2019-08-14 11:00:00 25.9 26 Este 39 Este 0 1009.5 0.7 59
2019-08-14 10:00:00 25.1 19 Este 28 Este 0 1009.3 0.7 59
2019-08-14 09:00:00 23 3 Nordeste 18 Norte 0 1009.1 0.7 58
2019-08-14 08:00:00 19.1 8 Noroeste 15 Norte 0 1008.8 0.7 75
2019-08-14 07:00:00 19.4 8 Noroeste 11 Norte 0 1008.6 0.3 73
2019-08-14 06:00:00 21.3 6 Norte 13 Norte 0 1008.4 -0.5 62
2019-08-14 05:00:00 20 8 Norte 17 Norte 0 1008.1 -1.1 64
2019-08-14 04:00:00 20.8 10 Norte 18 Norte 0 1008.3 -1.5 67
2019-08-14 03:00:00 21.3 13 Norte 26 Nordeste 0 1008.9 -0.9 69
2019-08-14 02:00:00 21.7 16 Nordeste 30 Nordeste 0 1009.2 -0.3 67
2019-08-14 01:00:00 21.9 15 Nordeste 30 Este 0 1009.8 0.8 66
2019-08-14 00:00:00 22.4 16 Nordeste 24 Nordeste 0 1009.8 1.4 61
2019-08-13 23:00:00 22.7 17 Nordeste 35 Nordeste 0 1009.5 1.5 61
2019-08-13 22:00:00 23.2 24 Nordeste 42 Nordeste 0 1009 1.2 57
2019-08-13 21:00:00 23.7 29 Nordeste 48 Nordeste 0 1008.4 0.5 58
2019-08-13 20:00:00 24.9 38 Nordeste 54 Nordeste 0 1008 0 57
2019-08-13 19:00:00 26.4 39 Nordeste 55 Nordeste 0 1007.8 -0.3 54
2019-08-13 18:00:00 26.6 39 Este 61 Este 0 1007.9 -0.7 56
2019-08-13 17:00:00 26.9 42 Este 59 Este 0 1008 -0.9 56
2019-08-13 16:00:00 27.4 43 Este 63 Este 0 1008.1 -1.2 54
2019-08-13 15:00:00 27.2 46 Este 67 Este 0 1008.6 -0.8 55
2019-08-13 14:00:00 27.6 42 Este 59 Este 0 1008.9 -0.5 54
2019-08-13 13:00:00 27.5 40 Este 54 Este 0 1009.3 0.2 54
2019-08-13 12:00:00 27.1 36 Este 54 Este 0 1009.4 0.5 55
2019-08-13 11:00:00 26.4 37 Nordeste 52 Nordeste 0 1009.4 0.8 55
2019-08-13 10:00:00 25.2 37 Nordeste 48 Nordeste 0 1009.1 0.9 56
2019-08-13 09:00:00 23.7 28 Nordeste 42 Nordeste 0 1008.9 0.8 62
2019-08-13 08:00:00 22.3 23 Nordeste 41 Nordeste 0 1008.6 0.4 66
2019-08-13 07:00:00 22.2 22 Nordeste 41 Nordeste 0 1008.2 -0.2 67
2019-08-13 06:00:00 22.2 23 Nordeste 37 Este 0 1008.1 -0.7 66
2019-08-13 05:00:00 21.4 10 Nordeste 21 Nordeste 0 1008.2 -1.2 64
2019-08-13 04:00:00 21 0 Calma 13 Noroeste 0 1008.4 -1.1 74
2019-08-13 03:00:00 21.4 8 Noroeste 13 Nordeste 0 1008.8 -0.6 72
2019-08-13 02:00:00 22.1 5 Norte 24 Nordeste 0 1009.4 0 58
2019-08-13 01:00:00 23.7 22 Nordeste 39 Nordeste 0 1009.5 0.5 49
2019-08-13 00:00:00 23.3 24 Nordeste 42 Nordeste 0 1009.4 1.2 58
2019-08-12 23:00:00 23.6 27 Nordeste 41 Nordeste 0 1009.4 1.6 55
2019-08-12 22:00:00 23.7 18 Nordeste 39 Nordeste 0 1009 1.7 57
2019-08-12 21:00:00 24 30 Nordeste 42 Nordeste 0 1008.2 1.2 61
2019-08-12 20:00:00 25.5 34 Este 46 Nordeste 0 1007.8 0.5 60
2019-08-12 19:00:00 27 35 Este 52 Nordeste 0 1007.3 -0.4 53
2019-08-12 18:00:00 28.1 38 Nordeste 52 Nordeste 0 1007 -1 50
2019-08-12 17:00:00 28.1 35 Nordeste 52 Nordeste 0 1007.3 -1.2 52
2019-08-12 16:00:00 28.9 36 Nordeste 54 Nordeste 0 1007.7 -1.1 50
2019-08-12 15:00:00 28.4 41 Nordeste 61 Nordeste 0 1008 -0.8 51
2019-08-12 14:00:00 28.2 45 Nordeste 61 Nordeste 0 1008.5 0.1 53
2019-08-12 13:00:00 28.6 40 Este 55 Nordeste 0 1008.8 0.6 53
2019-08-12 12:00:00 27.4 46 Nordeste 65 Nordeste 0 1008.8 1 55
2019-08-12 11:00:00 26.5 48 Nordeste 65 Nordeste 0 1008.4 0.6 56
2019-08-12 10:00:00 26.1 32 Nordeste 48 Este 0 1008.2 1 61
2019-08-12 09:00:00 25.2 29 Nordeste 42 Nordeste 0 1007.8 0.9 54
2019-08-12 08:00:00 23.4 13 Nordeste 35 Nordeste 0 1007.8 0.7 60
2019-08-12 07:00:00 23.2 24 Nordeste 37 Nordeste 0 1007.2 -0.2 63
2019-08-12 06:00:00 23 14 Nordeste 37 Este 0 1006.9 -1.1 64
2019-08-12 05:00:00 22.8 22 Nordeste 37 Nordeste 0 1007.1 -1.5 70
2019-08-12 04:00:00 23.2 16 Nordeste 32 Nordeste 0 1007.4 -1.7 63
2019-08-12 03:00:00 23.5 15 Nordeste 37 Nordeste 0 1008 -1.5 57
2019-08-12 02:00:00 24.7 24 Nordeste 39 Nordeste 0 1008.6 -1 38
2019-08-12 01:00:00 24.1 14 Nordeste 42 Nordeste 0 1009.1 -0.1 47
2019-08-12 00:00:00 23.6 15 Nordeste 42 Nordeste 0 1009.5 0.6 57
2019-08-11 23:00:00 23.4 29 Nordeste 48 Nordeste 0 1009.6 1.4 66
2019-08-11 22:00:00 23.3 22 Nordeste 46 Nordeste 0 1009.2 1.3 70
2019-08-11 21:00:00 24 31 Nordeste 50 Nordeste 0 1008.9 0.9 66
2019-08-11 20:00:00 25.3 35 Nordeste 63 Nordeste 0 1008.2 -0.1 62
2019-08-11 19:00:00 26.5 40 Nordeste 61 Nordeste 0 1007.9 -0.6 57
2019-08-11 18:00:00 27.3 45 Este 61 Nordeste 0 1008 -0.7 56
2019-08-11 17:00:00 28.2 42 Nordeste 67 Nordeste 0 1008.3 -0.9 54
2019-08-11 16:00:00 27.6 46 Este 65 Este 0 1008.5 -1 59
2019-08-11 15:00:00 28.4 43 Este 59 Nordeste 0 1008.7 -1.4 60
2019-08-11 14:00:00 28.5 43 Nordeste 55 Nordeste 0 1009.2 -1.2 60
2019-08-11 13:00:00 28.5 40 Nordeste 54 Este 0 1009.5 -0.5 61
2019-08-11 12:00:00 27.8 36 Nordeste 54 Nordeste 0 1010.1 0.3 65
2019-08-11 11:00:00 26.8 36 Nordeste 52 Nordeste 0 1010.4 1 68
2019-08-11 10:00:00 25.3 35 Nordeste 54 Nordeste 0 1010 1.1 74
2019-08-11 09:00:00 23.8 27 Nordeste 39 Nordeste 0 1009.8 1.4 85
2019-08-11 08:00:00 24.1 23 Nordeste 39 Nordeste 0 1009.4 0.8 76
2019-08-11 07:00:00 23.9 22 Nordeste 46 Nordeste 0 1008.9 -0.2 78
2019-08-11 06:00:00 23.9 33 Nordeste 52 Nordeste 0 1008.4 -0.9 79
2019-08-11 05:00:00 23.8 31 Nordeste 46 Nordeste 0 1008.6 -1 81
2019-08-11 04:00:00 23.8 31 Nordeste 50 Nordeste 0 1009.1 -0.8 76
2019-08-11 03:00:00 23.8 35 Nordeste 48 Nordeste 0 1009.3 -1.1 78
2019-08-11 02:00:00 23.8 30 Nordeste 48 Nordeste 0 1009.6 -0.8 77
2019-08-11 01:00:00 23.6 21 Nordeste 35 Nordeste 0 1009.9 -0.3 81
2019-08-11 00:00:00 23.8 16 Nordeste 28 Este 0 1010.4 0.5 80
2019-08-10 23:00:00 24 18 Nordeste 30 Este 0 1010.4 0.7 79
2019-08-10 22:00:00 24.4 19 Este 39 Nordeste 0 1010.2 0.6 77
2019-08-10 21:00:00 25.2 22 Este 35 Nordeste 0 1009.9 0.1 71
2019-08-10 20:00:00 26.4 24 Este 41 Este 0 1009.7 -0.1 69
2019-08-10 19:00:00 27.7 29 Este 41 Nordeste 0 1009.6 -0.6 64
2019-08-10 18:00:00 27.5 31 Este 46 Este 0 1009.8 -0.7 67
2019-08-10 17:00:00 28.8 30 Este 50 Este 0 1009.8 -1.1 61
2019-08-10 16:00:00 29 36 Este 52 Este 0 1010.2 -1 58
2019-08-10 15:00:00 29.7 36 Este 52 Este 0 1010.5 -0.7 55
2019-08-10 14:00:00 29.4 37 Este 48 Este 0 1010.9 -0.1 56
2019-08-10 13:00:00 29.4 27 Este 42 Este 0 1011.2 0.7 57
2019-08-10 12:00:00 28.4 30 Este 42 Este 0 1011.2 0.8 61
2019-08-10 11:00:00 27.7 23 Este 33 Este 0 1011 1 63
2019-08-10 10:00:00 26.5 14 Nordeste 30 Nordeste 0 1010.5 1.1 65
2019-08-10 09:00:00 24.6 12 Nordeste 24 Nordeste 0 1010.4 1.2 70
2019-08-10 08:00:00 21.8 7 Noroeste 17 Nordeste 0 1010 0.9 79
2019-08-10 07:00:00 22.3 10 Norte 21 Nordeste 0 1009.4 0.1 79
2019-08-10 06:00:00 22.5 9 Norte 18 Nordeste 0 1009.2 -0.3 79
2019-08-10 05:00:00 22.7 9 Nordeste 18 Nordeste 0 1009.1 -1.2 76
2019-08-10 04:00:00 22.9 15 Nordeste 32 Nordeste 0 1009.3 -1.6 80
2019-08-10 03:00:00 23 22 Nordeste 37 Nordeste 0 1009.5 -1.6 79
2019-08-10 02:00:00 22.9 25 Nordeste 33 Nordeste 0 1010.3 -0.4 83
2019-08-10 01:00:00 22.9 17 Nordeste 30 Nordeste 0 1010.9 0.4 83
2019-08-10 00:00:00 23.1 13 Nordeste 21 Nordeste 0 1011.1 1.1 82
2019-08-09 23:00:00 23.3 13 Nordeste 21 Nordeste 0 1010.7 1 81
2019-08-09 22:00:00 23.6 15 Este 26 Nordeste 0 1010.5 1.1 80
2019-08-09 21:00:00 24.4 18 Nordeste 33 Este 0 1010 1 74
2019-08-09 20:00:00 25.4 17 Este 30 Este 0 1009.7 0.5 72
2019-08-09 19:00:00 26.1 21 Este 32 Este 0 1009.4 -0.2 68
2019-08-09 18:00:00 27.1 24 Este 33 Este 0 1009 -0.8 65
2019-08-09 17:00:00 27.5 26 Este 37 Este 0 1009.2 -0.8 63
2019-08-09 16:00:00 27.1 30 Este 41 Este 0 1009.6 -0.5 64
2019-08-09 15:00:00 27 32 Este 42 Este 0 1009.8 -0.2 65
2019-08-09 14:00:00 26.5 34 Este 46 Este 0 1010 0.4 67
2019-08-09 13:00:00 27.2 31 Este 46 Este 0 1010.1 1 64
2019-08-09 12:00:00 27 31 Este 42 Este 0 1010 1.1 63
2019-08-09 11:00:00 26.5 19 Este 32 Este 0 1009.6 0.8 64
2019-08-09 10:00:00 25.1 23 Nordeste 30 Este 0 1009.1 0.7 70
2019-08-09 09:00:00 23.3 18 Nordeste 28 Nordeste 0 1008.9 0.2 77
2019-08-09 08:00:00 21.6 17 Nordeste 26 Nordeste 0 1008.8 -0.1 82
2019-08-09 07:00:00 21.6 16 Nordeste 30 Nordeste 0 1008.4 -0.5 83
2019-08-09 06:00:00 21.5 15 Nordeste 24 Nordeste 0 1008.7 -0.8 84
2019-08-09 05:00:00 21.3 8 Nordeste 15 Nordeste 0 1008.9 -1 84
2019-08-09 04:00:00 21.6 9 Nordeste 15 Nordeste 0 1008.9 -1.2 84
2019-08-09 03:00:00 21.9 9 Nordeste 18 Nordeste 0 1009.5 -0.6 84
2019-08-09 02:00:00 22.3 15 Nordeste 26 Nordeste 0 1009.9 0.1 82
2019-08-09 01:00:00 22.5 18 Nordeste 30 Nordeste 0 1010.1 1 82
2019-08-09 00:00:00 22.6 19 Este 26 Este 0 1010.1 1.6 82
2019-08-08 23:00:00 22.8 14 Este 28 Este 0 1009.8 1.8 80
2019-08-08 22:00:00 23 18 Este 28 Norte 0 1009.1 1.4 79
2019-08-08 21:00:00 23.4 21 Este 30 Este 0 1008.5 0.8 77
2019-08-08 20:00:00 24.3 26 Este 33 Este 0 1008 0.2 74
2019-08-08 19:00:00 25.5 26 Este 35 Este 0 1007.7 -0.2 69
2019-08-08 18:00:00 26.1 25 Este 35 Este 0 1007.7 -0.3 66
2019-08-08 17:00:00 26.4 24 Este 37 Este 0 1007.8 -0.1 66
2019-08-08 16:00:00 27.3 24 Este 37 Este 0 1007.9 0 62
2019-08-08 15:00:00 27.1 25 Este 39 Este 0 1008 -0.4 62
2019-08-08 14:00:00 27.3 29 Este 37 Este 0 1007.9 -0.1 62
2019-08-08 13:00:00 26.6 28 Este 39 Este 0 1007.9 0.3 63
2019-08-08 12:00:00 25.9 28 Este 39 Este 0 1008.4 1.1 66
2019-08-08 11:00:00 25.6 22 Este 33 Este 0 1008 0.8 68
2019-08-08 10:00:00 24.7 13 Este 21 Este 0 1007.6 0.6 68
2019-08-08 09:00:00 22.9 14 Nordeste 28 Nordeste 0 1007.3 0.6 76
2019-08-08 08:00:00 21.5 17 Nordeste 24 Nordeste 0 1007.2 0.7 84
2019-08-08 07:00:00 20.8 9 Norte 21 Nordeste 0 1007 0.3 81
2019-08-08 06:00:00 21.1 11 Nordeste 21 Nordeste 0 1006.7 -0.5 80
2019-08-08 05:00:00 20.6 8 Nordeste 15 Norte 0 1006.5 -1.3 80
2019-08-08 04:00:00 21 9 Norte 30 Nordeste 0 1006.7 -1.4 79
2019-08-08 03:00:00 21.9 20 Nordeste 30 Este 0 1007.2 -1.1 80
2019-08-08 02:00:00 21.9 17 Nordeste 28 Nordeste 0 1007.8 -0.3 83
2019-08-08 01:00:00 22.2 14 Nordeste 28 Nordeste 0 1008.1 0.5 82
2019-08-08 00:00:00 22.4 17 Nordeste 30 Nordeste 0 1008.3 1.4 80
2019-08-07 23:00:00 22.5 21 Nordeste 30 Nordeste 0 1008.1 1.4 79
2019-08-07 22:00:00 22.8 21 Nordeste 37 Nordeste 0 1007.6 0.8 78
2019-08-07 21:00:00 23.3 24 Este 37 Este 0 1006.9 0.2 77
2019-08-07 20:00:00 24.8 29 Nordeste 45 Este 0 1006.7 -0.5 69
2019-08-07 19:00:00 25.9 32 Este 46 Este 0 1006.8 -0.6 65
2019-08-07 18:00:00 26.6 31 Este 46 Este 0 1006.7 -0.7 64
2019-08-07 17:00:00 26.9 38 Este 50 Este 0 1007.2 -0.3 60
2019-08-07 16:00:00 27.4 35 Este 48 Este 0 1007.4 -0.5 57
2019-08-07 15:00:00 27.4 36 Este 48 Este 0 1007.4 -0.4 58
2019-08-07 14:00:00 27.2 36 Este 50 Este 0 1007.5 -0.3 60
2019-08-07 13:00:00 26.9 36 Este 50 Este 0 1007.9 0.3 61
2019-08-07 12:00:00 26.5 32 Este 45 Este 0 1007.8 0.3 63
2019-08-07 11:00:00 25.5 29 Este 46 Este 0 1007.8 0.5 67
2019-08-07 10:00:00 25 22 Este 32 Este 0 1007.6 0.7 69
2019-08-07 09:00:00 23.3 8 Nordeste 28 Norte 0 1007.5 0.9 65
2019-08-07 08:00:00 19.5 9 Noroeste 21 Noroeste 0 1007.3 0.7 75
2019-08-07 07:00:00 19.9 8 Norte 22 Norte 0 1006.9 0.2 75
2019-08-07 06:00:00 20.1 8 Norte 22 Norte 0 1006.6 -0.3 69
2019-08-07 05:00:00 21.5 14 Norte 22 Norte 0 1006.6 -0.9 67
2019-08-07 04:00:00 21.5 10 Norte 17 Norte 0 1006.7 -0.9 69
2019-08-07 03:00:00 21.8 9 Norte 21 Nordeste 0 1006.9 -1.1 66
2019-08-07 02:00:00 22.7 15 Nordeste 45 Nordeste 0 1007.5 -0.3 66
2019-08-07 01:00:00 23.1 30 Nordeste 42 Nordeste 0 1007.6 0.2 68
2019-08-07 00:00:00 22.9 14 Nordeste 41 Nordeste 0 1008 0.9 71
2019-08-06 23:00:00 23.4 27 Nordeste 39 Nordeste 0 1007.8 1.2 68
2019-08-06 22:00:00 23.5 24 Nordeste 35 Nordeste 0 1007.4 1.1 67
2019-08-06 21:00:00 23.8 25 Nordeste 46 Este 0 1007.1 0.6 68
2019-08-06 20:00:00 24.8 37 Este 50 Este 0 1006.6 0 65
2019-08-06 19:00:00 26.1 34 Este 52 Este 0 1006.3 -0.7 61
2019-08-06 18:00:00 26.8 35 Este 48 Este 0 1006.5 -1 63
2019-08-06 17:00:00 27.7 31 Este 45 Este 0 1006.6 -1.3 60
2019-08-06 16:00:00 28 34 Este 42 Este 0 1007 -1.5 56
2019-08-06 15:00:00 27.7 33 Este 46 Este 0 1007.5 -1.2 58
2019-08-06 14:00:00 28 33 Este 48 Este 0 1007.9 -0.5 57
2019-08-06 13:00:00 27.7 32 Este 45 Este 0 1008.5 -0.1 59
2019-08-06 12:00:00 27.2 30 Este 41 Este 0 1008.7 0 58
2019-08-06 11:00:00 26.5 29 Este 41 Este 0 1008.4 -0.1 60
2019-08-06 10:00:00 25.2 29 Este 39 Este 0 1008.6 0.7 64
2019-08-06 09:00:00 23.6 15 Nordeste 28 Norte 0 1008.7 0.6 69
2019-08-06 08:00:00 21.3 6 Noroeste 33 Nordeste 0 1008.5 0.3 71
2019-08-06 07:00:00 21.7 19 Nordeste 30 Nordeste 0 1007.9 -0.4 77
2019-08-06 06:00:00 21.7 13 Nordeste 39 Nordeste 0 1008.1 -0.5 72
2019-08-06 05:00:00 22.4 25 Nordeste 35 Este 0 1008.2 -0.7 71
2019-08-06 04:00:00 22.3 21 Nordeste 37 Nordeste 0 1008.3 -0.8 71
2019-08-06 03:00:00 22.5 18 Nordeste 33 Nordeste 0 1008.6 -0.7 73
2019-08-06 02:00:00 22.4 8 Norte 28 Nordeste 0 1008.9 -0.3 73
2019-08-06 01:00:00 22.8 22 Nordeste 32 Nordeste 0 1009.1 0.7 72
2019-08-06 00:00:00 22.8 17 Nordeste 26 Nordeste 0 1009.3 1.3 75
2019-08-05 23:00:00 23.6 17 Nordeste 28 Nordeste 0 1009.2 1.6 66
2019-08-05 22:00:00 23.9 20 Nordeste 35 Norte 0 1008.4 0.7 67
2019-08-05 21:00:00 24.4 21 Nordeste 35 Nordeste 0 1008 0 66
2019-08-05 20:00:00 26.1 24 Este 37 Nordeste 0 1007.6 -0.5 61
2019-08-05 19:00:00 27 25 Este 35 Este 0 1007.7 -0.7 60
2019-08-05 18:00:00 27.8 26 Este 39 Este 0 1008 -0.6 56
2019-08-05 17:00:00 28.1 30 Este 48 Nordeste 0 1008.1 -0.9 53
2019-08-05 16:00:00 28.1 37 Este 55 Este 0 1008.4 -0.9 52
2019-08-05 15:00:00 28.2 43 Este 58 Este 0 1008.6 -0.8 52
2019-08-05 14:00:00 28.3 29 Este 41 Este 0 1009 -0.6 57
2019-08-05 13:00:00 27.2 29 Este 42 Este 0 1009.3 -0.2 59
2019-08-05 12:00:00 26.7 32 Este 45 Este 0 1009.4 0.2 62
2019-08-05 11:00:00 24.5 13 Sudoeste 17 Sudoeste 0 1009.6 0.5 65
2019-08-05 10:00:00 23.2 10 Sudoeste 13 Sudoeste 0 1009.5 0.8 70
2019-08-05 09:00:00 23.2 7 Sur 15 Noroeste 0 1009.2 0.3 65
2019-08-05 08:00:00 20.6 11 Noroeste 22 Norte 0 1009.1 0.3 72
2019-08-05 07:00:00 20.4 10 Noroeste 18 Nordeste 0 1008.7 -0.4 73
2019-08-05 06:00:00 20.8 6 Norte 13 Norte 0 1008.9 -0.5 76
2019-08-05 05:00:00 21.9 3 Norte 22 Norte 0 1008.8 -0.9 68
2019-08-05 04:00:00 21.8 13 Norte 21 Norte 0 1009.1 -1.1 66
2019-08-05 03:00:00 22 13 Norte 26 Nordeste 0 1009.4 -0.8 70
2019-08-05 02:00:00 22.2 11 Nordeste 26 Nordeste 0 1009.7 0 71
2019-08-05 01:00:00 22.5 14 Nordeste 26 Este 0 1010.2 0.7 70
2019-08-05 00:00:00 22.8 10 Nordeste 37 Nordeste 0 1010.2 1.1 68
2019-08-04 23:00:00 23.1 23 Nordeste 41 Este 0 1009.7 1.1 67
2019-08-04 22:00:00 23.5 29 Nordeste 42 Nordeste 0 1009.5 1.4 68
2019-08-04 21:00:00 23.8 29 Nordeste 46 Nordeste 0 1009.1 0.7 69
2019-08-04 20:00:00 25.3 35 Este 54 Nordeste 0 1008.6 0.1 61
2019-08-04 19:00:00 26.3 31 Este 54 Este 0 1008.1 -0.6 60
2019-08-04 18:00:00 26.3 38 Este 52 Este 0 1008.4 -0.5 61
2019-08-04 17:00:00 26.3 38 Este 52 Este 0 1008.5 -1 64
2019-08-04 16:00:00 27.9 36 Este 54 Este 0 1008.7 -1.1 58
2019-08-04 15:00:00 28.3 35 Este 54 Este 0 1008.9 -1.2 53
2019-08-04 14:00:00 27.9 41 Este 55 Este 0 1009.5 -0.4 49
2019-08-04 13:00:00 27.6 36 Este 50 Este 0 1009.8 0 50
2019-08-04 12:00:00 26.8 34 Este 46 Este 0 1010.1 0.4 55
2019-08-04 11:00:00 26.2 29 Este 48 Este 0 1009.9 0.4 57
2019-08-04 10:00:00 25.2 24 Nordeste 39 Nordeste 0 1009.8 0.4 54
2019-08-04 09:00:00 22.9 10 Norte 18 Norte 0 1009.7 0.6 60
2019-08-04 08:00:00 20.5 16 Norte 22 Norte 0 1009.5 0.5 67
2019-08-04 07:00:00 20.4 13 Norte 21 Norte 0 1009.4 0.4 69
2019-08-04 06:00:00 20.3 11 Nordeste 24 Nordeste 0 1009.1 -0.3 70
2019-08-04 05:00:00 19.9 12 Nordeste 21 Nordeste 0 1009 -0.7 68
2019-08-04 04:00:00 20.3 11 Norte 15 Norte 0 1009 -1 66
2019-08-04 03:00:00 20.8 11 Norte 24 Nordeste 0 1009.4 -0.8 68
2019-08-04 02:00:00 21.3 16 Nordeste 28 Nordeste 0 1009.7 -0.1 70
2019-08-04 01:00:00 21.8 17 Nordeste 32 Nordeste 0 1010 0.9 67
2019-08-04 00:00:00 22.5 23 Nordeste 32 Este 0 1010.2 1.4 64
2019-08-03 23:00:00 22.6 25 Nordeste 39 Nordeste 0 1009.8 1.4 62
2019-08-03 22:00:00 22.8 27 Este 41 Este 0 1009.1 0.7 64
2019-08-03 21:00:00 23.3 24 Nordeste 39 Nordeste 0 1008.8 0.4 66
2019-08-03 20:00:00 24.4 28 Este 42 Este 0 1008.4 -0.3 66
2019-08-03 19:00:00 25.3 32 Este 46 Este 0 1008.4 -0.9 62
2019-08-03 18:00:00 26.3 35 Este 48 Nordeste 0 1008.4 -1.4 57
2019-08-03 17:00:00 26.9 35 Este 50 Este 0 1008.7 -1.4 55
2019-08-03 16:00:00 26.8 37 Este 50 Este 0 1009.3 -1.1 59
2019-08-03 15:00:00 26.7 36 Este 48 Este 0 1009.8 -0.8 56
2019-08-03 14:00:00 26.6 35 Este 48 Este 0 1010.1 -0.2 56
2019-08-03 13:00:00 26.1 35 Este 46 Este 0 1010.4 0.3 58
2019-08-03 12:00:00 26.3 30 Este 45 Este 0 1010.6 0.6 57
2019-08-03 11:00:00 25.4 26 Este 35 Nordeste 0 1010.3 0.7 60
2019-08-03 10:00:00 23.5 16 Nordeste 28 Nordeste 0 1010.1 0.9 68
2019-08-03 09:00:00 22.6 12 Nordeste 21 Norte 0 1010 1 68
2019-08-03 08:00:00 20.9 6 Norte 26 Norte 0 1009.6 0.6 71
2019-08-03 07:00:00 20.2 8 Norte 21 Norte 0 1009.2 -0.1 72
2019-08-03 06:00:00 20.2 12 Norte 21 Nordeste 0 1009 -0.9 74
2019-08-03 05:00:00 21 12 Nordeste 22 Este 0 1009 -1.1 74
2019-08-03 04:00:00 20.6 9 Norte 17 Nordeste 0 1009.3 -0.7 74
2019-08-03 03:00:00 20.8 14 Nordeste 18 Nordeste 0 1009.9 -0.2 72
2019-08-03 02:00:00 20.7 10 Norte 18 Nordeste 0 1010.1 0.3 72
2019-08-03 01:00:00 21.6 18 Nordeste 33 Este 0 1010 0.6 76
2019-08-03 00:00:00 21.9 23 Este 32 Nordeste 0 1010.1 1.2 75
2019-08-02 23:00:00 22.3 18 Este 30 Nordeste 0 1009.8 0.9 72
2019-08-02 22:00:00 22.6 22 Nordeste 33 Este 0 1009.4 0.5 72
2019-08-02 21:00:00 23.2 22 Este 46 Este 0 1008.9 0.3 70
2019-08-02 20:00:00 24.8 29 Este 46 Este 0 1008.9 -0.4 62
2019-08-02 19:00:00 25.8 36 Este 48 Nordeste 0 1008.9 -0.6 59
2019-08-02 18:00:00 26.7 32 Este 46 Este 0 1008.6 -1.3 57
2019-08-02 17:00:00 26.8 35 Este 50 Este 0 1009.3 -1 55
2019-08-02 16:00:00 26.8 34 Este 50 Este 0 1009.5 -1 55
2019-08-02 15:00:00 26.6 35 Este 52 Este 0 1009.9 -0.6 58
2019-08-02 14:00:00 27 36 Este 54 Este 0 1010.3 -0.1 53
2019-08-02 13:00:00 26.7 35 Este 46 Este 0 1010.5 0.1 55
2019-08-02 12:00:00 26 35 Este 46 Este 0 1010.5 0.1 58
2019-08-02 11:00:00 25.3 30 Este 39 Este 0 1010.4 0.6 58
2019-08-02 10:00:00 23.3 13 Nordeste 22 Este 0 1010.4 0.9 65
2019-08-02 09:00:00 21.7 9 Norte 22 Norte 0 1010.4 1 66
2019-08-02 08:00:00 19.5 12 Norte 17 Norte 0 1009.8 0.6 73
2019-08-02 07:00:00 20.3 14 Norte 21 Norte 0 1009.5 0 71
2019-08-02 06:00:00 19.7 12 Norte 22 Norte 0 1009.4 -0.2 71
2019-08-02 05:00:00 20.1 18 Nordeste 22 Nordeste 0 1009.2 -0.3 70
2019-08-02 04:00:00 20.2 11 Nordeste 18 Norte 0 1009.5 0.2 73
2019-08-02 03:00:00 20.5 14 Norte 24 Norte 0 1009.6 -0.1 72
2019-08-02 02:00:00 21 13 Nordeste 26 Nordeste 0 1009.5 -0.1 71
2019-08-02 01:00:00 21.6 17 Nordeste 30 Nordeste 0 1009.3 0.2 70
2019-08-02 00:00:00 21.5 16 Nordeste 30 Nordeste 0 1009.7 0.7 71
2019-08-01 23:00:00 22 20 Nordeste 39 Este 0 1009.6 0.9 72
2019-08-01 22:00:00 22.3 26 Nordeste 37 Nordeste 0 1009.1 0.8 74
2019-08-01 21:00:00 22.8 27 Este 41 Este 0 1009 0.7 72
2019-08-01 20:00:00 23.8 32 Este 42 Este 0 1008.7 0.2 69
2019-08-01 19:00:00 25.4 32 Este 46 Este 0 1008.3 -0.4 62
2019-08-01 18:00:00 26.1 35 Este 48 Este 0 1008.3 -0.6 59
2019-08-01 17:00:00 26.7 32 Este 50 Este 0 1008.5 -0.8 57
2019-08-01 16:00:00 26.4 36 Este 52 Este 0 1008.7 -0.8 59
2019-08-01 15:00:00 26.3 37 Este 50 Este 0 1008.9 -0.6 61
2019-08-01 14:00:00 26.8 41 Este 50 Este 0 1009.3 -0.1 52
2019-08-01 13:00:00 26.1 39 Este 52 Este 0 1009.5 0.4 57
2019-08-01 12:00:00 25.8 35 Este 45 Este 0 1009.5 0.6 57
2019-08-01 11:00:00 25.6 24 Este 33 Este 0 1009.4 0.8 52
2019-08-01 10:00:00 24.4 18 Este 35 Nordeste 0 1009.1 1.4 59
2019-08-01 09:00:00 22.6 6 Nordeste 22 Noroeste 0 1008.9 1.2 60
2019-08-01 08:00:00 19.7 8 Norte 24 Noroeste 0 1008.6 1.1 72
2019-08-01 07:00:00 18.6 14 Noroeste 17 Noroeste 0 1007.7 0.2 74
2019-08-01 06:00:00 19.3 11 Norte 18 Norte 0 1007.7 -0.5 72
2019-08-01 05:00:00 20.3 7 Sur 28 Nordeste 0 1007.5 -0.8 70
2019-08-01 04:00:00 19.9 15 Noroeste 21 Noroeste 0 1007.5 -1.1 72
2019-08-01 03:00:00 19.4 12 Nordeste 13 Nordeste 0 1008.2 -0.5 76
2019-08-01 02:00:00 19.9 7 Sur 17 Noroeste 0 1008.3 0 77
2019-08-01 01:00:00 20.7 13 Noroeste 17 Noroeste 0 1008.6 1.1 72
2019-08-01 00:00:00 20.9 7 Sudoeste 13 Noroeste 0 1008.7 1.1 70
2019-07-31 23:00:00 21.7 5 Oeste 32 Noroeste 0 1008.3 1.1 66
2019-07-31 22:00:00 22.3 10 Noroeste 33 Nordeste 0 1007.5 0.5 67
2019-07-31 21:00:00 22.9 22 Este 37 Nordeste 0 1007.6 0.4 65
2019-07-31 20:00:00 23.9 26 Este 41 Este 0 1007.2 0 60
2019-07-31 19:00:00 24.8 31 Este 45 Este 0 1007 -0.8 59
2019-07-31 18:00:00 25.5 34 Este 46 Este 0 1007.2 -1.1 57
2019-07-31 17:00:00 26 37 Este 50 Este 0 1007.2 -1.5 55
2019-07-31 16:00:00 25.8 37 Este 50 Este 0 1007.8 -1.2 55
2019-07-31 15:00:00 24.6 35 Este 52 Este 0 1008.3 -0.7 62
2019-07-31 14:00:00 24.7 39 Este 50 Este 0 1008.7 0.1 62
2019-07-31 13:00:00 26 33 Este 50 Este 0 1009 0.7 53
2019-07-31 12:00:00 25.7 30 Este 48 Este 0 1009 0.9 53
2019-07-31 11:00:00 25.9 28 Este 39 Este 0 1008.6 1.1 50
2019-07-31 10:00:00 24.3 10 Norte 22 Este 0 1008.3 1.5 55
2019-07-31 09:00:00 22.5 10 Este 22 Nordeste 0 1008.1 1.2 61
2019-07-31 08:00:00 21.6 9 Nordeste 13 Nordeste 0 1007.5 0.6 71
2019-07-31 07:00:00 21 6 Oeste 11 Nordeste 0 1006.8 0.2 70
2019-07-31 06:00:00 21.3 7 Nordeste 18 Oeste 0 1006.9 -0.5 69
2019-07-31 05:00:00 21.1 3 Sudeste 15 Oeste 0 1006.9 -1.3 75
2019-07-31 04:00:00 21.1 11 Oeste 15 Noroeste 0 1006.6 -2.1 71
2019-07-31 03:00:00 21.5 5 Norte 22 Nordeste 0 1007.4 -1.6 65
2019-07-31 02:00:00 21.9 8 Nordeste 18 Este 0 1008.2 -0.7 64
2019-07-31 01:00:00 22.4 9 Este 26 Este 0 1008.7 0.3 64
2019-07-31 00:00:00 23.1 14 Nordeste 33 Este 0 1009 1.1 61
2019-07-30 23:00:00 23 22 Nordeste 35 Nordeste 0 1008.9 1.2 65
2019-07-30 22:00:00 23.4 22 Este 39 Este 0 1008.4 1.1 64
2019-07-30 21:00:00 23.4 27 Este 45 Nordeste 0 1007.9 0.4 64
2019-07-30 20:00:00 24.2 31 Este 52 Este 0 1007.7 0 60
2019-07-30 19:00:00 25.1 37 Este 52 Este 0 1007.3 -0.8 60
2019-07-30 18:00:00 26.5 34 Este 54 Nordeste 0 1007.5 -1 54
2019-07-30 17:00:00 26.6 40 Este 58 Este 0 1007.7 -1.4 54
2019-07-30 16:00:00 27.1 43 Este 54 Este 0 1008.1 -1.4 53
2019-07-30 15:00:00 27.7 41 Este 59 Este 0 1008.5 -1.3 51
2019-07-30 14:00:00 27.2 36 Este 52 Este 0 1009.1 -0.8 52
2019-07-30 13:00:00 26.1 39 Este 50 Este 0 1009.5 -0.3 60
2019-07-30 12:00:00 25.7 31 Este 45 Este 0 1009.8 0.7 63
2019-07-30 11:00:00 25.1 24 Este 33 Este 0 1009.9 1.3 65
2019-07-30 10:00:00 24.4 10 Sudoeste 18 Oeste 0 1009.8 1.2 65
2019-07-30 09:00:00 23.4 14 Oeste 33 Noroeste 0 1009.1 0.9 70
2019-07-30 08:00:00 22.3 12 Oeste 21 Noroeste 0 1008.6 0.5 73
2019-07-30 07:00:00 20.9 5 Nordeste 22 Noroeste 0 1008.6 0.3 74
2019-07-30 06:00:00 20.7 8 Oeste 13 Noroeste 0 1008.2 -0.6 76
2019-07-30 05:00:00 20.9 11 Noroeste 13 Noroeste 0 1008.1 -1.1 74
2019-07-30 04:00:00 22.3 6 Norte 26 Este 0 1008.3 -1.1 71
2019-07-30 03:00:00 22.4 8 Noroeste 30 Nordeste 0 1008.8 -0.9 71
2019-07-30 02:00:00 23 12 Nordeste 45 Nordeste 0 1009.2 -0.2 70
2019-07-30 01:00:00 23.3 25 Nordeste 45 Nordeste 0 1009.4 0.6 69
2019-07-30 00:00:00 23.5 22 Nordeste 42 Nordeste 0 1009.7 1.5 66
2019-07-29 23:00:00 23.4 23 Nordeste 54 Nordeste 0 1009.4 1.5 68
2019-07-29 22:00:00 23.7 39 Nordeste 58 Nordeste 0 1008.8 1.3 65
2019-07-29 21:00:00 23.9 33 Nordeste 48 Nordeste 0 1008.2 0.5 64
2019-07-29 20:00:00 25.4 36 Nordeste 54 Nordeste 0 1007.9 0.3 56
2019-07-29 19:00:00 26.3 36 Este 54 Este 0 1007.5 -0.3 57
2019-07-29 18:00:00 27.7 33 Este 50 Este 0 1007.7 -0.3 51
2019-07-29 17:00:00 27.6 37 Este 52 Este 0 1007.6 -0.7 53
2019-07-29 16:00:00 27.5 36 Este 50 Este 0 1007.8 -0.6 53
2019-07-29 15:00:00 28.2 35 Este 54 Este 0 1008 -0.6 51
2019-07-29 14:00:00 27.2 39 Este 52 Este 0 1008.3 -0.3 54
2019-07-29 13:00:00 27.1 37 Este 50 Este 0 1008.4 0.2 54
2019-07-29 12:00:00 27.3 39 Este 52 Nordeste 0 1008.6 0.8 49
2019-07-29 11:00:00 26.7 23 Este 42 Este 0 1008.6 1.3 52
2019-07-29 10:00:00 24.7 22 Este 37 Este 0 1008.2 1 58
2019-07-29 09:00:00 23.8 9 Nordeste 18 Este 0 1007.8 0.9 63
2019-07-29 08:00:00 22.3 8 Nordeste 26 Este 0 1007.3 0.6 71
2019-07-29 07:00:00 22.8 17 Este 35 Este 0 1007.2 0.2 69
2019-07-29 06:00:00 22.8 10 Este 28 Sudeste 0 1006.9 -0.4 70
2019-07-29 05:00:00 22.4 17 Este 32 Este 0 1006.7 -0.6 71
2019-07-29 04:00:00 22.5 22 Este 37 Este 0 1007 -0.4 73
2019-07-29 03:00:00 22.8 25 Este 39 Nordeste 0 1007.3 -0.2 69
2019-07-29 02:00:00 22.9 22 Este 35 Nordeste 0 1007.3 -0.2 73
2019-07-29 01:00:00 23.5 22 Nordeste 45 Nordeste 0 1007.4 0.4 68
2019-07-29 00:00:00 23.3 24 Este 35 Este 0 1007.5 1.1 69
2019-07-28 23:00:00 23.3 26 Nordeste 35 Este 0 1007.5 1.6 72
2019-07-28 22:00:00 23.6 24 Nordeste 37 Nordeste 0 1007 1.9 68
2019-07-28 21:00:00 23.6 27 Este 39 Este 0 1006.4 1.6 70
2019-07-28 20:00:00 24.2 26 Este 45 Este 0 1005.9 0.8 72
2019-07-28 19:00:00 25.6 31 Este 45 Este 0 1005.1 0.1 66
2019-07-28 18:00:00 26.3 33 Este 50 Este 0 1004.8 -0.7 65
2019-07-28 17:00:00 27.2 36 Este 50 Este 0 1005.1 -0.8 63
2019-07-28 16:00:00 27.7 38 Este 50 Este 0 1005 -1.3 63
2019-07-28 15:00:00 28 37 Este 50 Este 0 1005.5 -1.2 62
2019-07-28 14:00:00 28.1 34 Este 48 Este 0 1005.9 -0.9 62
2019-07-28 13:00:00 27.9 30 Este 42 Este 0 1006.3 -0.5 64
2019-07-28 12:00:00 26.8 32 Este 42 Este 0 1006.7 0 67
2019-07-28 11:00:00 25.8 32 Este 45 Este 0 1006.8 0.5 69
2019-07-28 10:00:00 25.7 28 Nordeste 41 Nordeste 0 1006.8 0.7 65
2019-07-28 09:00:00 24.1 24 Nordeste 35 Nordeste 0 1006.7 0.9 69
2019-07-28 08:00:00 21.9 13 Nordeste 30 Nordeste 0 1006.3 0.3 76
2019-07-28 07:00:00 21.6 18 Nordeste 30 Nordeste 0 1006.1 -0.1 78
2019-07-28 06:00:00 21.8 20 Nordeste 33 Nordeste 0 1005.8 -1.3 78
2019-07-28 05:00:00 21.9 21 Nordeste 39 Nordeste 0 1006 -1.7 80
2019-07-28 04:00:00 22 26 Nordeste 41 Nordeste 0 1006.2 -1.9 80
2019-07-28 03:00:00 21.8 17 Nordeste 35 Nordeste 0 1007.1 -1.2 76
2019-07-28 02:00:00 21.6 20 Nordeste 33 Nordeste 0 1007.7 -0.6 70
2019-07-28 01:00:00 21.8 26 Nordeste 41 Nordeste 0 1008.1 -0.1 70
2019-07-28 00:00:00 21.8 29 Nordeste 42 Nordeste 0 1008.3 0.7 73
2019-07-27 23:00:00 22 24 Nordeste 41 Nordeste 0 1008.3 0.8 74
2019-07-27 22:00:00 22.3 27 Nordeste 45 Nordeste 0 1008.2 0.7 73
2019-07-26 11:00:00 26.6 21 Este 41 Nordeste 0 1008.5 0.9 63
2019-07-26 10:00:00 25.9 19 Este 39 Este 0 1008 0.8 61
2019-07-26 09:00:00 23.5 28 Nordeste 39 Nordeste 0 1007.9 0.8 73
2019-07-26 08:00:00 21.7 14 Nordeste 35 Nordeste 0 1007.6 1 78
2019-07-26 07:00:00 22 28 Nordeste 42 Nordeste 0 1007.2 0.6 78
2019-07-26 06:00:00 22.6 23 Nordeste 41 Nordeste 0 1007.1 -0.1 69
2019-07-26 05:00:00 23.4 22 Nordeste 48 Nordeste 0 1006.6 -1.3 64
2019-07-26 04:00:00 23.4 33 Nordeste 46 Nordeste 0 1006.6 -1.4 67
2019-07-26 03:00:00 22.6 26 Nordeste 48 Nordeste 0 1007.2 -1 77
2019-07-26 02:00:00 22.4 33 Nordeste 48 Nordeste 0 1007.9 0.2 82
2019-07-26 01:00:00 22.7 31 Nordeste 46 Este 0 1008 1 74
2019-07-26 00:00:00 22.7 24 Nordeste 41 Nordeste 0 1008.2 1.8 75
2019-07-25 23:00:00 22.7 25 Nordeste 45 Nordeste 0 1007.7 1.5 76
2019-07-25 22:00:00 22.9 32 Nordeste 52 Nordeste 0 1007 0.9 77
2019-07-25 21:00:00 24 28 Este 41 Nordeste 0 1006.4 0.2 71
2019-07-25 20:00:00 25.4 31 Este 52 Nordeste 0 1006.2 0.1 65
2019-07-25 19:00:00 26.1 37 Este 50 Nordeste 0 1006.1 0 63
2019-07-25 18:00:00 27.1 38 Este 52 Nordeste 0 1006.2 -0.4 58
2019-07-25 17:00:00 29.1 31 Este 45 Este 0 1006.1 -0.8 44
2019-07-25 16:00:00 31.4 28 Nordeste 48 Este 0 1006.1 -0.6 29
2019-07-25 15:00:00 30.6 37 Este 72 Este 0 1006.6 -0.8 33
2019-07-25 14:00:00 30.5 31 Este 55 Este 0 1006.9 -0.2 35
2019-07-25 13:00:00 30.4 40 Este 59 Este 0 1006.7 0.2 30
2019-07-25 12:00:00 30.1 34 Nordeste 50 Nordeste 0 1007.4 0.4 31
2019-07-25 11:00:00 28 10 Sudoeste 32 Nordeste 0 1007.1 1 46
2019-07-25 10:00:00 28.1 23 Este 41 Nordeste 0 1006.5 0.4 29
2019-07-25 09:00:00 23.9 7 Nordeste 18 Nordeste 0 1007 1.3 45
2019-07-25 08:00:00 19.3 14 Este 21 Este 0 1006.1 0.2 56
2019-07-25 07:00:00 18 4 Norte 17 Norte 0 1006.1 -0.1 65
2019-07-25 06:00:00 18.4 8 Noroeste 13 Noroeste 0 1005.7 -0.4 75
2019-07-25 05:00:00 18.5 0 Calma 9 Noroeste 0 1005.9 -0.8 78
2019-07-25 04:00:00 19.6 9 Oeste 15 Sudoeste 0 1006.2 -0.8 83
2019-07-25 03:00:00 19.8 5 Noroeste 9 Norte 0 1006.1 -1.4 73
2019-07-25 02:00:00 20.6 3 Este 26 Nordeste 0 1006.7 -0.2 70
2019-07-25 01:00:00 21.8 20 Nordeste 39 Nordeste 0 1007 0.6 75
2019-07-25 00:00:00 22.1 26 Nordeste 41 Nordeste 0 1007.5 1.8 75
2019-07-24 23:00:00 22.5 25 Nordeste 37 Nordeste 0 1006.9 1.5 72
2019-07-24 22:00:00 23.4 23 Nordeste 35 Este 0 1006.4 1.3 62
2019-07-24 21:00:00 23.9 21 Este 37 Este 0 1005.7 0.4 66
2019-07-24 20:00:00 25.6 25 Este 33 Este 0 1005.4 0 62
2019-07-24 19:00:00 26.4 25 Este 39 Este 0 1005.1 -1.1 62
2019-07-24 18:00:00 26.9 30 Este 41 Este 0 1005.3 -1.2 61
2019-07-24 17:00:00 27.1 32 Este 42 Este 0 1005.4 -1.3 60
2019-07-24 16:00:00 28.4 26 Este 37 Este 0 1006.2 -0.7 55
2019-07-24 15:00:00 28.7 13 Nordeste 42 Este 0 1006.5 -0.9 53
2019-07-24 14:00:00 27.6 32 Este 42 Este 0 1006.7 -0.3 56
2019-07-24 13:00:00 27.4 30 Este 45 Este 0 1006.9 0.3 56
2019-07-24 12:00:00 26.7 29 Este 39 Este 0 1007.4 0.6 59
2019-07-24 11:00:00 26.6 20 Nordeste 30 Nordeste 0 1007 0.3 57
2019-07-24 10:00:00 24.9 22 Nordeste 33 Este 0 1006.6 0.3 62
2019-07-24 09:00:00 22.8 13 Nordeste 18 Nordeste 0 1006.8 1 71
2019-07-24 08:00:00 19.1 6 Norte 15 Norte 0 1006.7 0.9 78
2019-07-24 07:00:00 18.8 9 Noroeste 15 Nordeste 0 1006.3 -0.1 75
2019-07-24 06:00:00 19.4 10 Norte 17 Norte 0 1005.8 -0.9 70
2019-07-24 05:00:00 20.4 12 Nordeste 26 Nordeste 0 1005.8 -1.3 77
2019-07-24 04:00:00 19.8 9 Norte 17 Norte 0 1006.4 -1.5 77
2019-07-24 03:00:00 20.6 10 Norte 35 Nordeste 0 1006.7 -1.4 68
2019-07-24 02:00:00 21.5 28 Nordeste 41 Nordeste 0 1007.1 -1 75
2019-07-24 01:00:00 21.1 12 Nordeste 21 Nordeste 0 1007.9 0.3 67
2019-07-24 00:00:00 21.3 4 Norte 24 Norte 0 1008.1 0.6 64
2019-07-23 23:00:00 21.8 8 Nordeste 21 Norte 0 1008.1 1.2 64
2019-07-23 22:00:00 22.4 9 Nordeste 33 Nordeste 0 1007.6 0.7 69
2019-07-23 21:00:00 23.1 17 Este 32 Este 0 1007.5 0.5 70
2019-07-23 20:00:00 24.7 26 Este 42 Este 0 1006.9 -0.3 61
2019-07-23 19:00:00 25.7 30 Este 46 Este 0 1006.9 -0.9 60
2019-07-23 18:00:00 26 37 Este 50 Este 0 1007 -1.3 59
2019-07-23 17:00:00 26.4 36 Este 54 Este 0 1007.2 -1.4 57
2019-07-23 16:00:00 26.6 37 Este 50 Este 0 1007.8 -0.6 56
2019-07-23 15:00:00 26.8 38 Este 54 Este 0 1008.3 -0.1 56
2019-07-23 14:00:00 26.3 39 Este 58 Este 0 1008.6 0.1 56
2019-07-23 13:00:00 26.2 44 Este 55 Este 0 1008.4 0 56
2019-07-23 12:00:00 25.6 38 Este 50 Este 0 1008.4 0.1 59
2019-07-23 11:00:00 25.3 29 Este 39 Este 0 1008.5 0.5 59
2019-07-23 10:00:00 24.6 21 Este 32 Nordeste 0 1008.4 0.5 56
2019-07-23 09:00:00 22.6 20 Nordeste 30 Este 0 1008.3 0.3 64
2019-07-23 08:00:00 20 4 Norte 22 Norte 0 1008 0 70
2019-07-23 07:00:00 19.6 8 Norte 22 Nordeste 0 1007.9 -0.1 74
2019-07-23 06:00:00 19.6 8 Norte 22 Norte 0 1008 -0.4 73
2019-07-23 05:00:00 20.4 7 Nordeste 30 Nordeste 0 1008 -1.1 72
2019-07-23 04:00:00 20 5 Nordeste 21 Este 0 1008 -1.8 75
2019-07-23 03:00:00 20.3 6 Noroeste 18 Nordeste 0 1008.4 -1.3 73
2019-07-23 02:00:00 20.7 10 Norte 15 Nordeste 0 1009.1 -0.4 73
2019-07-23 01:00:00 20.6 7 Nordeste 17 Nordeste 0 1009.8 0.4 73
2019-07-23 00:00:00 21.2 13 Nordeste 17 Nordeste 0 1009.7 0.6 72
2019-07-22 23:00:00 21.6 14 Nordeste 30 Este 0 1009.5 1 74
2019-07-22 22:00:00 22 17 Nordeste 35 Nordeste 0 1009.4 1.5 72
2019-07-22 21:00:00 22.5 26 Nordeste 42 Nordeste 0 1009.1 1.1 71
2019-07-22 20:00:00 24.2 27 Este 50 Este 0 1008.5 0.6 65
2019-07-22 19:00:00 25.1 38 Este 54 Este 0 1007.9 -0.6 60
2019-07-22 18:00:00 25.7 39 Este 52 Este 0 1008 -1.2 60
2019-07-22 17:00:00 26.6 37 Este 48 Este 0 1007.9 -2 58
2019-07-22 16:00:00 26.7 37 Este 52 Este 0 1008.5 -1.3 57
2019-07-22 15:00:00 27.3 42 Este 54 Este 0 1009.2 -0.8 53
2019-07-22 14:00:00 27 39 Este 54 Este 0 1009.9 -0.1 55
2019-07-22 13:00:00 26.5 36 Este 54 Este 0 1009.8 -0.1 55
2019-07-22 12:00:00 25.7 39 Este 52 Este 0 1010 -0.1 58
2019-07-22 11:00:00 25.3 30 Este 45 Nordeste 0 1010 0.1 59
2019-07-22 10:00:00 24.3 28 Este 37 Este 0 1009.9 -0.1 63
2019-07-22 09:00:00 22.6 17 Nordeste 26 Nordeste 0 1010.1 0.4 70
2019-07-22 08:00:00 20.6 15 Nordeste 21 Nordeste 0 1009.9 0 78
2019-07-22 07:00:00 20.2 11 Norte 28 Nordeste 0 1010 0 77
2019-07-22 06:00:00 20.5 14 Nordeste 30 Nordeste 0 1009.7 -0.7 77
2019-07-22 05:00:00 21.3 15 Nordeste 39 Nordeste 0 1009.9 -1.2 78
2019-07-22 04:00:00 21.3 20 Nordeste 35 Nordeste 0 1010 -1.5 79
2019-07-22 03:00:00 21.5 20 Nordeste 32 Nordeste 0 1010.4 -1.2 78
2019-07-22 02:00:00 21.7 19 Nordeste 41 Este 0 1011.1 -0.4 77
2019-07-22 01:00:00 21.7 25 Nordeste 39 Nordeste 0 1011.5 0.3 79
2019-07-22 00:00:00 21.8 24 Nordeste 41 Nordeste 0 1011.6 1.3 78
2019-07-21 23:00:00 22.2 27 Nordeste 35 Nordeste 0 1011.5 1.6 76
2019-07-21 22:00:00 22.4 22 Nordeste 37 Este 0 1011.2 1.6 74
2019-07-21 21:00:00 23.2 28 Nordeste 45 Este 0 1010.3 0.7 71
2019-07-21 20:00:00 24.7 32 Nordeste 45 Este 0 1009.9 0 64
2019-07-21 19:00:00 26.2 35 Nordeste 48 Este 0 1009.6 -0.4 58
2019-07-21 18:00:00 26.3 36 Este 50 Este 0 1009.6 -0.6 62
2019-07-21 17:00:00 26.8 37 Este 55 Este 0 1009.9 -0.6 57
2019-07-21 16:00:00 26.7 41 Este 58 Este 0 1010 -0.6 59
2019-07-21 15:00:00 27.2 38 Este 55 Este 0 1010.2 -0.7 57
2019-07-21 14:00:00 26.6 39 Este 54 Nordeste 0 1010.5 -0.2 57
2019-07-21 13:00:00 26.8 37 Este 52 Este 0 1010.6 -0.1 57
2019-07-21 12:00:00 26.2 34 Este 48 Este 0 1010.9 0.1 60
2019-07-21 11:00:00 25.9 26 Nordeste 45 Nordeste 0 1010.7 0.4 58
2019-07-21 10:00:00 24.4 33 Nordeste 46 Este 0 1010.7 1.1 63
2019-07-21 09:00:00 22.6 29 Nordeste 37 Nordeste 0 1010.8 1.2 73
2019-07-21 08:00:00 21.4 12 Norte 32 Nordeste 0 1010.3 0.7 73
2019-07-21 07:00:00 21.7 21 Nordeste 33 Nordeste 0 1009.6 -0.3 76
2019-07-21 06:00:00 21.8 23 Nordeste 41 Nordeste 0 1009.6 -0.3 75
2019-07-21 05:00:00 22 25 Nordeste 45 Nordeste 0 1009.6 -0.8 76
2019-07-21 04:00:00 21.8 25 Nordeste 42 Nordeste 0 1009.9 -1 77
2019-07-21 03:00:00 21.8 26 Nordeste 39 Nordeste 0 1009.9 -1.2 76
2019-07-21 02:00:00 21.9 22 Nordeste 46 Nordeste 0 1010.4 -0.5 80
2019-07-21 01:00:00 22.5 28 Nordeste 45 Nordeste 0 1010.9 0.8 72
2019-07-21 00:00:00 22.6 24 Nordeste 42 Nordeste 0 1011.1 1.6 71